Time;durP1;ratioP1;P1;durP2;ratioP2;P2;SDS_P1;SDS_P2;PMS_P1;PMS_P2;Temp;Humidity;BMP_temperature;BMP_pressure;BME280_temperature;BME280_humidity;BME280_pressure;Samples;Min_cycle;Max_cycle;Signal;HPM_P1;HPM_P2
2023/02/02 00:02:13;;;;;;;3.27;2.57;;;;;;;;;;5073400;28;20201;-85
2023/02/02 00:04:40;;;;;;;2.60;2.40;;;;;;;;;;5059440;28;20246;-85
2023/02/02 00:07:07;;;;;;;4.40;2.97;;;;;;;;;;5098076;28;20577;-85
2023/02/02 00:09:34;;;;;;;3.83;2.73;;;;;;;;;;5053693;28;20278;-85
2023/02/02 00:12:05;;;;;;;2.17;1.67;;;;;;;;;;5064857;28;20210;-85
2023/02/02 00:14:32;;;;;;;1.67;1.40;;;;;;;;;;5052869;28;20206;-85
2023/02/02 00:16:59;;;;;;;2.80;2.50;;;;;;;;;;5061233;28;20209;-85
2023/02/02 00:19:30;;;;;;;4.37;2.80;;;;;;;;;;5054925;28;20244;-85
2023/02/02 00:21:57;;;;;;;4.80;2.70;;;;;;;;;;5063362;28;20293;-85
2023/02/02 00:24:24;;;;;;;2.30;2.10;;;;;;;;;;5054467;28;20208;-85
2023/02/02 00:26:52;;;;;;;2.97;2.77;;;;;;;;;;5061890;28;20205;-85
2023/02/02 00:29:21;;;;;;;51.67;20.47;;;;;;;;;;5054896;28;20676;-84
2023/02/02 00:31:48;;;;;;;15.87;7.10;;;;;;;;;;5061942;28;20691;-86
2023/02/02 00:34:16;;;;;;;2.90;2.00;;;;;;;;;;5052110;28;20201;-86
2023/02/02 00:36:44;;;;;;;2.77;1.83;;;;;;;;;;5051382;28;20685;-86
2023/02/02 00:39:15;;;;;;;2.17;1.60;;;;;;;;;;5070000;28;20599;-85
2023/02/02 00:41:42;;;;;;;1.67;1.57;;;;;;;;;;5071471;28;20209;-85
2023/02/02 00:46:53;;;;;;;10.27;4.20;;;;;;;;;;5059131;28;20220;-86
2023/02/02 00:49:21;;;;;;;9.63;6.47;;;;;;;;;;5057474;28;20633;-86
2023/02/02 00:51:49;;;;;;;6.20;3.83;;;;;;;;;;5058044;28;20236;-86
2023/02/02 00:54:16;;;;;;;3.67;2.47;;;;;;;;;;5018506;28;20214;-87
2023/02/02 00:56:44;;;;;;;4.30;2.57;;;;;;;;;;5045662;28;20226;-89
2023/02/02 00:59:11;;;;;;;3.03;2.53;;;;;;;;;;5052096;28;20197;-86
2023/02/02 01:01:38;;;;;;;19.60;11.93;;;;;;;;;;5051429;28;20210;-87
2023/02/02 01:04:05;;;;;;;6.40;3.40;;;;;;;;;;5052303;28;20242;-86
2023/02/02 01:06:32;;;;;;;5.73;2.90;;;;;;;;;;5051849;28;20781;-87
2023/02/02 01:09:01;;;;;;;4.77;3.20;;;;;;;;;;5059670;28;20217;-87
2023/02/02 01:11:29;;;;;;;4.87;3.47;;;;;;;;;;5056607;28;20209;-86
2023/02/02 01:13:56;;;;;;;2.67;2.43;;;;;;;;;;5060802;28;20683;-87
2023/02/02 01:16:23;;;;;;;4.23;3.03;;;;;;;;;;5057163;28;20197;-87
2023/02/02 01:18:50;;;;;;;2.70;2.50;;;;;;;;;;5061557;28;20202;-87
2023/02/02 01:21:18;;;;;;;5.70;3.10;;;;;;;;;;5064951;28;20312;-87
2023/02/02 01:23:45;;;;;;;8.57;3.00;;;;;;;;;;5060380;28;20209;-87
2023/02/02 01:26:14;;;;;;;5.17;3.57;;;;;;;;;;5066139;28;20712;-87
2023/02/02 01:28:40;;;;;;;7.10;4.87;;;;;;;;;;5052020;28;20201;-88
2023/02/02 01:31:09;;;;;;;7.50;5.50;;;;;;;;;;5051967;28;20206;-87
2023/02/02 01:33:36;;;;;;;5.60;3.47;;;;;;;;;;5051282;28;20232;-87
2023/02/02 01:36:06;;;;;;;11.30;4.67;;;;;;;;;;5051449;28;20202;-87
2023/02/02 01:38:33;;;;;;;4.90;2.60;;;;;;;;;;5034083;28;20241;-88
2023/02/02 01:41:03;;;;;;;3.03;2.10;;;;;;;;;;5051250;28;20206;-87
2023/02/02 01:43:51;;;;;;;5.17;3.30;;;;;;;;;;5063368;28;20219;-87
2023/02/02 01:46:19;;;;;;;6.30;4.13;;;;;;;;;;5048058;28;20256;-88
2023/02/02 01:48:48;;;;;;;18.57;11.43;;;;;;;;;;5070395;28;20210;-88
2023/02/02 01:51:22;;;;;;;9.90;4.47;;;;;;;;;;5070018;28;20216;-89
2023/02/02 01:53:50;;;;;;;4.73;2.90;;;;;;;;;;5067800;28;20280;-87
2023/02/02 01:56:25;;;;;;;2.30;2.10;;;;;;;;;;5062763;28;20263;-88
2023/02/02 01:58:54;;;;;;;2.03;1.50;;;;;;;;;;5071449;28;20204;-87
2023/02/02 02:01:21;;;;;;;2.13;1.90;;;;;;;;;;5071920;28;20255;-88
2023/02/02 02:03:48;;;;;;;1.57;1.43;;;;;;;;;;5065238;28;20260;-88
2023/02/02 02:06:17;;;;;;;1.63;1.50;;;;;;;;;;5064802;28;20235;-88
2023/02/02 02:08:51;;;;;;;1.40;1.30;;;;;;;;;;5045783;28;20695;-90
2023/02/02 02:11:18;;;;;;;4.70;3.53;;;;;;;;;;5062565;28;20574;-88
2023/02/02 02:16:37;;;;;;;123.80;63.33;;;;;;;;;;5068111;28;20248;-88
2023/02/02 02:19:13;;;;;;;37.63;20.63;;;;;;;;;;5055890;28;20213;-87
2023/02/02 02:28:36;;;;;;;3.77;2.40;;;;;;;;;;5067747;28;20216;-88
2023/02/02 02:31:39;;;;;;;6.03;1.83;;;;;;;;;;5039162;28;20194;-88
2023/02/02 02:34:10;;;;;;;2.37;2.17;;;;;;;;;;5016804;28;20260;-88
2023/02/02 02:36:45;;;;;;;2.13;1.70;;;;;;;;;;5074939;28;20205;-88
2023/02/02 02:39:17;;;;;;;1.70;1.60;;;;;;;;;;5061246;28;20656;-88
2023/02/02 02:41:46;;;;;;;3.13;2.33;;;;;;;;;;5073962;28;20266;-91
2023/02/02 02:44:16;;;;;;;9.37;5.70;;;;;;;;;;5074050;28;20201;-88
2023/02/02 02:46:44;;;;;;;38.67;24.33;;;;;;;;;;5074958;28;20700;-88
2023/02/02 02:49:13;;;;;;;15.57;11.37;;;;;;;;;;5074797;28;20217;-88
2023/02/02 02:51:44;;;;;;;8.33;6.23;;;;;;;;;;5044261;28;20202;-87
2023/02/02 02:54:12;;;;;;;5.80;4.57;;;;;;;;;;5066992;28;20753;-88
2023/02/02 02:56:44;;;;;;;4.90;3.50;;;;;;;;;;5067114;28;20227;-88
2023/02/02 02:59:20;;;;;;;21.77;14.37;;;;;;;;;;5064596;28;20717;-88
2023/02/02 03:01:52;;;;;;;14.07;10.13;;;;;;;;;;5074618;28;20299;-88
2023/02/02 03:04:23;;;;;;;3.53;2.67;;;;;;;;;;5062580;28;20763;-88
2023/02/02 03:06:53;;;;;;;1.50;1.40;;;;;;;;;;5036685;28;20226;-88
2023/02/02 03:09:24;;;;;;;1.70;1.60;;;;;;;;;;5053604;28;20213;-88
2023/02/02 03:11:51;;;;;;;1.73;1.63;;;;;;;;;;5053217;28;20198;-88
2023/02/02 03:14:18;;;;;;;1.70;1.60;;;;;;;;;;5054336;28;20214;-87
2023/02/02 03:16:46;;;;;;;1.37;1.17;;;;;;;;;;5060791;28;20223;-88
2023/02/02 03:19:13;;;;;;;1.60;1.17;;;;;;;;;;5073046;28;20213;-88
2023/02/02 03:21:42;;;;;;;1.77;1.30;;;;;;;;;;5071918;28;20213;-87
2023/02/02 03:24:09;;;;;;;2.43;1.33;;;;;;;;;;5055453;28;20709;-89
2023/02/02 03:26:36;;;;;;;1.70;1.60;;;;;;;;;;5055573;28;20229;-89
2023/02/02 03:29:03;;;;;;;1.97;1.63;;;;;;;;;;5068115;28;20212;-89
2023/02/02 03:31:32;;;;;;;1.77;1.67;;;;;;;;;;5053884;28;20205;-88
2023/02/02 03:33:59;;;;;;;1.73;1.63;;;;;;;;;;5066830;28;20274;-89
2023/02/02 03:36:26;;;;;;;1.80;1.57;;;;;;;;;;5053786;28;20209;-90
2023/02/02 03:38:55;;;;;;;1.73;1.63;;;;;;;;;;5069284;28;20255;-90
2023/02/02 03:41:22;;;;;;;2.53;1.77;;;;;;;;;;5066108;28;20221;-90
2023/02/02 03:43:49;;;;;;;1.80;1.70;;;;;;;;;;5061965;28;20572;-90
2023/02/02 03:46:16;;;;;;;2.10;1.73;;;;;;;;;;5056782;28;20282;-90
2023/02/02 03:48:44;;;;;;;2.40;2.20;;;;;;;;;;5061238;28;20202;-90
2023/02/02 03:51:13;;;;;;;4.20;2.63;;;;;;;;;;5061072;28;20725;-91
2023/02/02 03:53:43;;;;;;;5.33;3.50;;;;;;;;;;5049770;28;20210;-90
2023/02/02 03:56:11;;;;;;;4.33;3.03;;;;;;;;;;5060447;28;20421;-90
2023/02/02 03:58:39;;;;;;;3.30;2.70;;;;;;;;;;5064376;28;20210;-90
2023/02/02 04:01:08;;;;;;;4.37;2.20;;;;;;;;;;5064546;28;20204;-90
2023/02/02 04:03:35;;;;;;;3.27;1.60;;;;;;;;;;5057737;28;20212;-91
2023/02/02 04:06:02;;;;;;;2.13;2.03;;;;;;;;;;5055776;28;20221;-90
2023/02/02 04:08:30;;;;;;;1.50;1.40;;;;;;;;;;5063169;28;20212;-91
2023/02/02 04:10:57;;;;;;;1.60;1.50;;;;;;;;;;5058685;28;20205;-90
2023/02/02 04:13:25;;;;;;;1.57;1.43;;;;;;;;;;5052560;28;21624;-90
2023/02/02 04:15:57;;;;;;;2.53;1.90;;;;;;;;;;5052866;28;20202;-89
2023/02/02 04:18:24;;;;;;;2.90;1.63;;;;;;;;;;5064874;28;20683;-87
2023/02/02 04:20:56;;;;;;;5.60;4.43;;;;;;;;;;5053402;28;20206;-85
2023/02/02 04:23:23;;;;;;;7.90;4.60;;;;;;;;;;5061954;28;20271;-88
2023/02/02 04:25:50;;;;;;;2.47;1.87;;;;;;;;;;5065744;28;21567;-85
2023/02/02 04:28:17;;;;;;;1.40;1.20;;;;;;;;;;5058101;28;21803;-83
2023/02/02 04:30:45;;;;;;;0.90;0.90;;;;;;;;;;5060691;28;20224;-83
2023/02/02 04:33:12;;;;;;;1.00;1.00;;;;;;;;;;5052556;28;20206;-84
2023/02/02 04:35:39;;;;;;;0.97;0.97;;;;;;;;;;5052420;28;20213;-84
2023/02/02 04:38:06;;;;;;;1.00;1.00;;;;;;;;;;5051044;28;20260;-83
2023/02/02 04:40:34;;;;;;;2.13;1.13;;;;;;;;;;5035923;28;20273;-83
2023/02/02 04:43:01;;;;;;;1.10;1.03;;;;;;;;;;5041946;28;20264;-84
2023/02/02 04:45:28;;;;;;;1.97;1.20;;;;;;;;;;5043601;28;20713;-84
2023/02/02 04:47:56;;;;;;;1.00;1.00;;;;;;;;;;5055856;28;20230;-84
2023/02/02 04:50:23;;;;;;;0.90;0.90;;;;;;;;;;5063115;28;20202;-84
2023/02/02 04:52:50;;;;;;;1.13;1.03;;;;;;;;;;5050678;28;20650;-84
2023/02/02 04:55:18;;;;;;;1.03;1.03;;;;;;;;;;5060999;28;20266;-84
2023/02/02 04:57:44;;;;;;;1.00;1.00;;;;;;;;;;5058031;28;20209;-84
2023/02/02 05:00:12;;;;;;;0.80;0.80;;;;;;;;;;5062531;28;20205;-84
2023/02/02 05:02:40;;;;;;;1.40;1.10;;;;;;;;;;5051989;28;20287;-84
2023/02/02 05:05:11;;;;;;;1.37;1.20;;;;;;;;;;5049880;28;20713;-84
2023/02/02 05:07:39;;;;;;;0.90;0.90;;;;;;;;;;5065588;28;20232;-85
2023/02/02 05:10:07;;;;;;;1.03;1.03;;;;;;;;;;5051098;28;20201;-86
2023/02/02 05:12:34;;;;;;;1.10;1.10;;;;;;;;;;5051661;28;20202;-85
2023/02/02 05:15:04;;;;;;;1.03;1.03;;;;;;;;;;5062007;28;20212;-85
2023/02/02 05:17:31;;;;;;;1.63;1.00;;;;;;;;;;5050949;28;20301;-85
2023/02/02 05:19:58;;;;;;;3.73;3.33;;;;;;;;;;5051879;28;20206;-86
2023/02/02 05:22:27;;;;;;;3.33;2.83;;;;;;;;;;5050347;28;20601;-86
2023/02/02 05:24:54;;;;;;;1.50;1.40;;;;;;;;;;5046270;28;20198;-85
2023/02/02 05:27:23;;;;;;;1.40;1.33;;;;;;;;;;5058346;28;20842;-85
2023/02/02 05:29:51;;;;;;;2.50;2.00;;;;;;;;;;5051396;28;20209;-86
2023/02/02 05:32:18;;;;;;;1.60;1.50;;;;;;;;;;5049169;28;20206;-87
2023/02/02 05:34:45;;;;;;;1.70;1.50;;;;;;;;;;5049767;28;20206;-85
2023/02/02 05:37:12;;;;;;;5.20;1.63;;;;;;;;;;5051215;28;20218;-86
2023/02/02 05:39:40;;;;;;;1.90;1.57;;;;;;;;;;5058951;28;20217;-86
2023/02/02 05:42:07;;;;;;;1.30;1.20;;;;;;;;;;5056687;28;20205;-85
2023/02/02 05:44:34;;;;;;;1.50;1.40;;;;;;;;;;5070722;28;20228;-86
2023/02/02 05:47:01;;;;;;;1.80;1.70;;;;;;;;;;5068062;28;20233;-86
2023/02/02 05:49:28;;;;;;;1.37;1.27;;;;;;;;;;5050812;28;20217;-86
2023/02/02 05:51:56;;;;;;;6.77;1.43;;;;;;;;;;5050666;28;20210;-86
2023/02/02 05:54:24;;;;;;;2.10;1.90;;;;;;;;;;5051215;28;20230;-84
2023/02/02 05:56:53;;;;;;;1.30;1.20;;;;;;;;;;5064022;28;20715;-85
2023/02/02 05:59:24;;;;;;;1.60;1.50;;;;;;;;;;5061313;28;20213;-87
2023/02/02 06:01:51;;;;;;;1.90;1.70;;;;;;;;;;5053022;28;20279;-86
2023/02/02 06:04:18;;;;;;;1.70;1.60;;;;;;;;;;5051244;28;20316;-86
2023/02/02 06:06:46;;;;;;;2.27;1.80;;;;;;;;;;5064139;28;20704;-85
2023/02/02 06:09:13;;;;;;;5.03;3.73;;;;;;;;;;5063145;28;20262;-86
2023/02/02 06:11:40;;;;;;;5.17;2.80;;;;;;;;;;5051992;28;20220;-85
2023/02/02 06:14:09;;;;;;;2.90;2.60;;;;;;;;;;5050970;28;20205;-85
2023/02/02 06:16:35;;;;;;;2.07;1.87;;;;;;;;;;5070160;28;20209;-85
2023/02/02 06:19:02;;;;;;;2.53;2.23;;;;;;;;;;5070568;28;20209;-85
2023/02/02 06:21:30;;;;;;;1.33;1.27;;;;;;;;;;5044477;28;20216;-84
2023/02/02 06:23:57;;;;;;;3.63;1.53;;;;;;;;;;5057217;28;20217;-85
2023/02/02 06:26:24;;;;;;;1.67;1.57;;;;;;;;;;5050589;28;20770;-89
2023/02/02 06:28:52;;;;;;;6.30;2.03;;;;;;;;;;5060428;28;20216;-85
2023/02/02 06:31:20;;;;;;;2.40;2.20;;;;;;;;;;5064273;28;20194;-84
2023/02/02 06:33:47;;;;;;;3.27;2.20;;;;;;;;;;5063607;28;20201;-84
2023/02/02 06:36:14;;;;;;;2.50;2.20;;;;;;;;;;5057676;28;20216;-84
2023/02/02 06:38:40;;;;;;;4.67;3.93;;;;;;;;;;5056853;28;20585;-84
2023/02/02 06:41:07;;;;;;;4.07;3.10;;;;;;;;;;5037390;28;20263;-83
2023/02/02 06:43:34;;;;;;;4.10;2.90;;;;;;;;;;5050594;28;20264;-83
2023/02/02 06:46:01;;;;;;;5.40;3.07;;;;;;;;;;5044497;28;20228;-84
2023/02/02 06:48:29;;;;;;;4.80;2.53;;;;;;;;;;5056776;28;20713;-85
2023/02/02 06:50:58;;;;;;;4.47;3.50;;;;;;;;;;5037907;28;20271;-84
2023/02/02 06:53:25;;;;;;;3.93;3.27;;;;;;;;;;5050597;28;20198;-85
2023/02/02 06:55:55;;;;;;;7.27;4.93;;;;;;;;;;5051470;28;20201;-84
2023/02/02 06:58:22;;;;;;;6.93;4.37;;;;;;;;;;5067785;28;20209;-84
2023/02/02 07:00:49;;;;;;;5.63;4.03;;;;;;;;;;5062826;28;20209;-84
2023/02/02 07:03:16;;;;;;;9.87;2.67;;;;;;;;;;5060484;28;20206;-84
2023/02/02 07:05:44;;;;;;;3.03;2.13;;;;;;;;;;5073794;28;20229;-84
2023/02/02 07:08:11;;;;;;;3.03;2.40;;;;;;;;;;5058624;28;20236;-84
2023/02/02 07:10:38;;;;;;;3.97;3.57;;;;;;;;;;5063079;28;20588;-85
2023/02/02 07:13:05;;;;;;;3.20;2.90;;;;;;;;;;5057995;28;20263;-84
2023/02/02 07:15:32;;;;;;;2.67;2.07;;;;;;;;;;5053783;28;20198;-85
2023/02/02 07:17:59;;;;;;;2.27;2.03;;;;;;;;;;5067165;28;20206;-86
2023/02/02 07:20:27;;;;;;;23.60;10.53;;;;;;;;;;5063744;28;20277;-86
2023/02/02 07:22:55;;;;;;;6.33;4.00;;;;;;;;;;5069872;28;20692;-86
2023/02/02 07:25:22;;;;;;;2.80;2.60;;;;;;;;;;5053564;28;20232;-87
2023/02/02 07:27:52;;;;;;;2.23;2.03;;;;;;;;;;5058251;28;20240;-85
2023/02/02 07:30:19;;;;;;;3.10;1.80;;;;;;;;;;5062359;28;20589;-85
2023/02/02 07:32:47;;;;;;;4.47;1.90;;;;;;;;;;5066887;28;20198;-85
2023/02/02 07:35:14;;;;;;;2.40;1.93;;;;;;;;;;5066168;28;20197;-86
2023/02/02 07:37:40;;;;;;;1.67;1.33;;;;;;;;;;5054144;28;20202;-85
2023/02/02 07:40:10;;;;;;;1.50;1.40;;;;;;;;;;5053671;28;20208;-86
2023/02/02 07:42:37;;;;;;;2.57;1.60;;;;;;;;;;5053714;28;20197;-86
2023/02/02 07:45:05;;;;;;;1.50;1.40;;;;;;;;;;5053319;28;20213;-87
2023/02/02 07:47:31;;;;;;;1.20;1.10;;;;;;;;;;5060583;28;20638;-86
2023/02/02 07:49:58;;;;;;;1.70;1.60;;;;;;;;;;5059576;28;20205;-86
2023/02/02 07:52:25;;;;;;;1.50;1.40;;;;;;;;;;5053253;28;20198;-88
2023/02/02 07:54:52;;;;;;;1.93;1.70;;;;;;;;;;5054838;28;20267;-86
2023/02/02 07:57:22;;;;;;;1.37;1.27;;;;;;;;;;5073034;28;20610;-87
2023/02/02 07:59:51;;;;;;;3.37;1.13;;;;;;;;;;5058165;28;20213;-86
2023/02/02 08:02:17;;;;;;;0.90;0.90;;;;;;;;;;5053145;28;20198;-86
2023/02/02 08:04:46;;;;;;;1.80;1.50;;;;;;;;;;5066647;28;20248;-86
2023/02/02 08:07:12;;;;;;;1.07;0.90;;;;;;;;;;5052707;28;20230;-86
2023/02/02 08:09:39;;;;;;;2.97;1.50;;;;;;;;;;5066478;28;20209;-86
2023/02/02 08:12:06;;;;;;;0.90;0.90;;;;;;;;;;5052848;28;20625;-85
2023/02/02 08:14:36;;;;;;;1.20;1.00;;;;;;;;;;5066591;28;20202;-86
2023/02/02 08:17:03;;;;;;;0.80;0.80;;;;;;;;;;5063339;28;20595;-85
2023/02/02 08:19:30;;;;;;;1.10;1.00;;;;;;;;;;5058669;28;20197;-86
2023/02/02 08:21:57;;;;;;;1.17;1.10;;;;;;;;;;5062420;28;20206;-87
2023/02/02 08:24:24;;;;;;;3.13;1.30;;;;;;;;;;5070201;28;20205;-87
2023/02/02 08:26:51;;;;;;;1.43;1.33;;;;;;;;;;5061995;28;20202;-86
2023/02/02 08:29:17;;;;;;;2.83;1.30;;;;;;;;;;5052550;28;20205;-86
2023/02/02 08:31:46;;;;;;;1.70;1.30;;;;;;;;;;5052786;28;20214;-86
2023/02/02 08:34:13;;;;;;;1.20;1.10;;;;;;;;;;5068979;28;20209;-86
2023/02/02 08:36:40;;;;;;;1.27;1.17;;;;;;;;;;5062030;28;20680;-86
2023/02/02 08:39:08;;;;;;;1.20;1.10;;;;;;;;;;5056216;28;20738;-86
2023/02/02 08:41:36;;;;;;;0.93;0.90;;;;;;;;;;5061719;28;20217;-86
2023/02/02 08:44:08;;;;;;;0.80;0.80;;;;;;;;;;5056362;28;20292;-86
2023/02/02 08:46:35;;;;;;;1.10;1.10;;;;;;;;;;5072331;28;20212;-85
2023/02/02 08:49:04;;;;;;;1.83;1.60;;;;;;;;;;5066732;28;20238;-85
2023/02/02 08:51:31;;;;;;;1.63;1.53;;;;;;;;;;5052385;28;20615;-86
2023/02/02 08:53:58;;;;;;;0.80;0.80;;;;;;;;;;5039132;28;20251;-86
2023/02/02 08:56:25;;;;;;;1.33;1.23;;;;;;;;;;5052182;28;20271;-86
2023/02/02 08:58:53;;;;;;;1.10;1.00;;;;;;;;;;5071841;28;20205;-85
2023/02/02 09:01:22;;;;;;;0.80;0.80;;;;;;;;;;5058426;28;20232;-86
2023/02/02 09:03:52;;;;;;;1.07;1.03;;;;;;;;;;5058341;28;20354;-85
2023/02/02 09:06:22;;;;;;;1.20;1.00;;;;;;;;;;5058514;28;20213;-86
2023/02/02 09:08:49;;;;;;;1.17;1.10;;;;;;;;;;5061614;28;20263;-86
2023/02/02 09:11:19;;;;;;;0.90;0.90;;;;;;;;;;5064795;28;20213;-86
2023/02/02 09:13:49;;;;;;;1.37;1.20;;;;;;;;;;5046655;28;20612;-86
2023/02/02 09:16:17;;;;;;;1.33;1.20;;;;;;;;;;5051477;28;20213;-86
2023/02/02 09:18:45;;;;;;;1.00;0.97;;;;;;;;;;5051340;28;20221;-86
2023/02/02 09:21:13;;;;;;;0.97;0.80;;;;;;;;;;5054936;28;20205;-86
2023/02/02 09:23:43;;;;;;;1.17;1.17;;;;;;;;;;5061393;28;20240;-87
2023/02/02 09:26:11;;;;;;;1.00;0.97;;;;;;;;;;5065621;28;20699;-85
2023/02/02 09:28:38;;;;;;;1.13;0.90;;;;;;;;;;5051767;28;20230;-86
2023/02/02 09:31:05;;;;;;;1.00;1.00;;;;;;;;;;5056047;28;20201;-85
2023/02/02 09:33:32;;;;;;;1.57;1.40;;;;;;;;;;5071482;28;20566;-85
2023/02/02 09:36:05;;;;;;;0.80;0.80;;;;;;;;;;5066551;28;20206;-86
2023/02/02 09:38:31;;;;;;;1.73;1.50;;;;;;;;;;5064198;28;20213;-87
2023/02/02 09:41:00;;;;;;;1.57;1.47;;;;;;;;;;5052101;28;20629;-86
2023/02/02 09:43:36;;;;;;;0.93;0.93;;;;;;;;;;5051191;28;20209;-89
2023/02/02 09:46:09;;;;;;;1.00;1.00;;;;;;;;;;5039870;28;20201;-86
2023/02/02 09:48:42;;;;;;;1.70;1.00;;;;;;;;;;5064666;28;20225;-85
2023/02/02 09:51:13;;;;;;;1.30;0.80;;;;;;;;;;5050833;28;20197;-85
2023/02/02 09:53:43;;;;;;;1.30;1.20;;;;;;;;;;5055392;28;20630;-85
2023/02/02 09:56:18;;;;;;;1.70;1.43;;;;;;;;;;5059442;28;20613;-86
2023/02/02 09:58:50;;;;;;;1.50;1.40;;;;;;;;;;5070554;28;20223;-85
2023/02/02 10:01:20;;;;;;;1.83;1.00;;;;;;;;;;5056887;28;20681;-84
2023/02/02 10:03:58;;;;;;;2.40;1.20;;;;;;;;;;5051297;28;20230;-85
2023/02/02 10:06:30;;;;;;;1.30;1.20;;;;;;;;;;5051013;28;20205;-85
2023/02/02 10:08:59;;;;;;;1.43;1.00;;;;;;;;;;5061267;28;20229;-87
2023/02/02 10:11:32;;;;;;;2.27;1.27;;;;;;;;;;5052990;28;20197;-85
2023/02/02 10:14:02;;;;;;;1.43;1.33;;;;;;;;;;5050853;28;20198;-86
2023/02/02 10:16:30;;;;;;;1.50;1.03;;;;;;;;;;5064072;28;20327;-86
2023/02/02 10:19:00;;;;;;;1.30;1.20;;;;;;;;;;5063397;28;20274;-86
2023/02/02 10:21:34;;;;;;;2.43;1.23;;;;;;;;;;5051216;28;20198;-89
2023/02/02 10:24:03;;;;;;;1.40;1.13;;;;;;;;;;5051024;28;20202;-86
2023/02/02 10:26:36;;;;;;;1.67;1.20;;;;;;;;;;5057992;28;20215;-86
2023/02/02 10:29:10;;;;;;;1.40;1.00;;;;;;;;;;5055926;28;20233;-85
2023/02/02 10:31:42;;;;;;;1.20;1.10;;;;;;;;;;5054574;28;20202;-85
2023/02/02 10:34:22;;;;;;;1.10;1.00;;;;;;;;;;5071127;28;20614;-84
2023/02/02 10:37:13;;;;;;;3.43;1.20;;;;;;;;;;5074130;28;20209;-85
2023/02/02 10:39:51;;;;;;;1.37;1.17;;;;;;;;;;5065732;28;20677;-85
2023/02/02 10:42:26;;;;;;;1.20;1.10;;;;;;;;;;5054528;28;20213;-85
2023/02/02 10:44:56;;;;;;;0.83;0.83;;;;;;;;;;5066733;28;20209;-85
2023/02/02 10:47:27;;;;;;;1.13;1.00;;;;;;;;;;5074361;28;20218;-85
2023/02/02 10:50:02;;;;;;;0.93;0.93;;;;;;;;;;5074297;28;20786;-85
2023/02/02 10:52:32;;;;;;;1.23;1.13;;;;;;;;;;5049636;28;20208;-87
2023/02/02 10:55:03;;;;;;;1.50;1.40;;;;;;;;;;5060602;28;20638;-86
2023/02/02 10:57:51;;;;;;;1.57;1.30;;;;;;;;;;5074042;28;20244;-85
2023/02/02 11:00:22;;;;;;;3.10;1.00;;;;;;;;;;5068928;28;20213;-85
2023/02/02 11:02:50;;;;;;;0.60;0.60;;;;;;;;;;5066976;28;20236;-85
2023/02/02 11:08:15;;;;;;;2.73;1.63;;;;;;;;;;5053953;28;20713;-85
2023/02/02 11:10:44;;;;;;;1.27;1.17;;;;;;;;;;5064826;28;20211;-85
2023/02/02 11:13:17;;;;;;;1.43;1.27;;;;;;;;;;5074193;28;20594;-85
2023/02/02 11:15:44;;;;;;;2.33;1.30;;;;;;;;;;5061945;28;20209;-85
2023/02/02 11:18:25;;;;;;;2.17;1.87;;;;;;;;;;5059597;28;20209;-85
2023/02/02 11:20:52;;;;;;;2.23;2.03;;;;;;;;;;5073925;28;20201;-85
2023/02/02 11:23:21;;;;;;;1.60;1.43;;;;;;;;;;5073898;28;20205;-85
2023/02/02 11:25:58;;;;;;;1.87;1.60;;;;;;;;;;5059286;28;20209;-86
2023/02/02 11:28:29;;;;;;;3.03;1.27;;;;;;;;;;5064605;28;20739;-84
2023/02/02 11:30:57;;;;;;;1.97;1.53;;;;;;;;;;5053393;28;20646;-84
2023/02/02 11:33:29;;;;;;;1.33;1.23;;;;;;;;;;5064060;28;20201;-86
2023/02/02 11:35:56;;;;;;;1.20;1.20;;;;;;;;;;5055767;28;20198;-86
2023/02/02 11:38:24;;;;;;;19.13;10.63;;;;;;;;;;5041950;28;20677;-85
2023/02/02 11:40:55;;;;;;;7.47;5.20;;;;;;;;;;5069969;28;20276;-84
2023/02/02 11:43:28;;;;;;;1.50;1.40;;;;;;;;;;5073185;28;20209;-85
2023/02/02 11:45:57;;;;;;;2.33;1.67;;;;;;;;;;5040357;28;20205;-85
2023/02/02 11:48:28;;;;;;;2.03;1.90;;;;;;;;;;5054119;28;20770;-84
2023/02/02 11:50:56;;;;;;;2.50;2.30;;;;;;;;;;5065002;28;20221;-85
2023/02/02 11:53:26;;;;;;;1.70;1.53;;;;;;;;;;5068258;28;20582;-85
2023/02/02 11:55:53;;;;;;;1.20;1.10;;;;;;;;;;5073414;28;20208;-85
2023/02/02 11:58:26;;;;;;;1.30;1.17;;;;;;;;;;5057055;28;20214;-85
2023/02/02 12:00:57;;;;;;;1.43;1.20;;;;;;;;;;5053050;28;20271;-84
2023/02/02 12:03:26;;;;;;;1.90;1.80;;;;;;;;;;5056807;28;20694;-86
2023/02/02 12:05:53;;;;;;;1.30;1.20;;;;;;;;;;5061646;28;20209;-85
2023/02/02 12:08:21;;;;;;;1.53;1.43;;;;;;;;;;5066336;28;20226;-85
2023/02/02 12:10:52;;;;;;;1.40;1.30;;;;;;;;;;5064705;28;20213;-85
2023/02/02 12:13:35;;;;;;;0.70;0.70;;;;;;;;;;5053433;28;20252;-85
2023/02/02 12:16:12;;;;;;;2.53;1.70;;;;;;;;;;5052524;28;20742;-84
2023/02/02 12:18:46;;;;;;;1.77;1.57;;;;;;;;;;5053211;28;20201;-84
2023/02/02 12:21:22;;;;;;;1.30;1.20;;;;;;;;;;5052808;28;20695;-85
2023/02/02 12:24:02;;;;;;;1.27;1.17;;;;;;;;;;5053179;28;20209;-85
2023/02/02 12:26:33;;;;;;;1.83;1.70;;;;;;;;;;5040496;28;20201;-85
2023/02/02 12:29:13;;;;;;;1.00;0.90;;;;;;;;;;5066285;28;20649;-85
2023/02/02 12:31:51;;;;;;;13.47;8.47;;;;;;;;;;5052810;28;20201;-85
2023/02/02 12:34:26;;;;;;;2.20;2.00;;;;;;;;;;5052767;28;20212;-85
2023/02/02 12:37:02;;;;;;;1.50;1.40;;;;;;;;;;5064981;28;20208;-85
2023/02/02 12:39:34;;;;;;;2.97;1.60;;;;;;;;;;5065382;28;20699;-85
2023/02/02 12:42:32;;;;;;;0.73;0.73;;;;;;;;;;5066782;28;20270;-86
2023/02/02 12:45:40;;;;;;;2.40;1.37;;;;;;;;;;5059891;28;20198;-85
2023/02/02 12:48:25;;;;;;;1.13;1.07;;;;;;;;;;5032952;28;20623;-85
2023/02/02 12:51:02;;;;;;;0.90;0.90;;;;;;;;;;5032723;28;20205;-85
2023/02/02 12:53:38;;;;;;;1.40;1.00;;;;;;;;;;5048693;28;20244;-85
2023/02/02 12:56:14;;;;;;;1.37;1.27;;;;;;;;;;5061813;28;20213;-89
2023/02/02 12:58:45;;;;;;;1.67;1.57;;;;;;;;;;5070026;28;20664;-85
2023/02/02 13:01:27;;;;;;;1.40;1.30;;;;;;;;;;5060064;28;20205;-85
2023/02/02 13:04:07;;;;;;;0.90;0.90;;;;;;;;;;5039729;28;20252;-84
2023/02/02 13:07:12;;;;;;;1.53;1.43;;;;;;;;;;5054732;28;20296;-85
2023/02/02 13:09:43;;;;;;;2.07;1.87;;;;;;;;;;5014944;28;20235;-87
2023/02/02 13:12:11;;;;;;;1.30;1.20;;;;;;;;;;5045596;28;20697;-84
2023/02/02 13:14:43;;;;;;;1.70;1.27;;;;;;;;;;5067616;28;20217;-86
2023/02/02 13:17:14;;;;;;;1.40;1.27;;;;;;;;;;5071974;28;20588;-85
2023/02/02 13:19:45;;;;;;;1.07;1.00;;;;;;;;;;5054321;28;20205;-84
2023/02/02 13:22:16;;;;;;;1.77;1.67;;;;;;;;;;5052068;28;20241;-85
2023/02/02 13:24:46;;;;;;;2.00;1.77;;;;;;;;;;5064638;28;20732;-85
2023/02/02 13:27:15;;;;;;;2.10;1.83;;;;;;;;;;5064378;28;20204;-85
2023/02/02 13:29:45;;;;;;;1.60;1.50;;;;;;;;;;5070898;28;20707;-85
2023/02/02 13:32:20;;;;;;;1.60;1.50;;;;;;;;;;5070556;28;20288;-87
2023/02/02 13:34:51;;;;;;;1.70;1.60;;;;;;;;;;5059171;28;20587;-85
2023/02/02 13:37:24;;;;;;;1.60;1.50;;;;;;;;;;5055937;28;20677;-84
2023/02/02 13:40:03;;;;;;;1.40;1.30;;;;;;;;;;5051323;28;20238;-86
2023/02/02 13:42:36;;;;;;;2.57;1.57;;;;;;;;;;5064873;28;20720;-85
2023/02/02 13:45:08;;;;;;;1.53;1.43;;;;;;;;;;5051445;28;20223;-85
2023/02/02 13:47:38;;;;;;;1.63;1.37;;;;;;;;;;5045059;28;20201;-85
2023/02/02 13:50:12;;;;;;;1.43;1.33;;;;;;;;;;5057311;28;20291;-85
2023/02/02 13:52:53;;;;;;;1.60;1.50;;;;;;;;;;5051107;28;20212;-86
2023/02/02 13:55:36;;;;;;;1.50;1.40;;;;;;;;;;5064736;28;20205;-85
2023/02/02 13:58:16;;;;;;;1.73;1.57;;;;;;;;;;5064081;28;20213;-85
2023/02/02 14:00:46;;;;;;;2.13;1.70;;;;;;;;;;5039226;28;20240;-86
2023/02/02 14:03:30;;;;;;;2.43;1.87;;;;;;;;;;5064594;28;20575;-86
2023/02/02 14:06:06;;;;;;;1.37;1.30;;;;;;;;;;5050290;28;20217;-85
2023/02/02 14:08:36;;;;;;;3.17;1.40;;;;;;;;;;5064266;28;20213;-85
2023/02/02 14:11:05;;;;;;;1.67;1.40;;;;;;;;;;5050674;28;20213;-86
2023/02/02 14:16:50;;;;;;;1.83;1.70;;;;;;;;;;5050915;28;20592;-86
2023/02/02 14:19:37;;;;;;;3.07;2.33;;;;;;;;;;5050736;28;20269;-86
2023/02/02 14:22:18;;;;;;;2.63;2.40;;;;;;;;;;5061754;28;20213;-85
2023/02/02 14:24:48;;;;;;;3.50;3.27;;;;;;;;;;5070765;28;20215;-86
2023/02/02 14:28:00;;;;;;;2.63;2.43;;;;;;;;;;5057259;28;20198;-86
2023/02/02 14:30:31;;;;;;;3.03;2.33;;;;;;;;;;5055881;28;20229;-86
2023/02/02 14:33:33;;;;;;;3.40;2.50;;;;;;;;;;5044165;28;20201;-85
2023/02/02 14:36:02;;;;;;;6.43;3.00;;;;;;;;;;5067178;28;20205;-85
2023/02/02 14:38:53;;;;;;;3.00;2.77;;;;;;;;;;5059015;28;20569;-86
2023/02/02 14:44:22;;;;;;;28.30;17.17;;;;;;;;;;5063323;28;20217;-86
2023/02/02 14:46:50;;;;;;;11.33;7.47;;;;;;;;;;5051913;28;20198;-86
2023/02/02 14:49:24;;;;;;;2.27;2.07;;;;;;;;;;5070427;28;20228;-86
2023/02/02 14:51:57;;;;;;;1.97;1.77;;;;;;;;;;5054755;28;20208;-85
2023/02/02 14:54:43;;;;;;;3.80;2.40;;;;;;;;;;5060935;28;20201;-86
2023/02/02 14:57:25;;;;;;;3.20;2.00;;;;;;;;;;5064025;28;20206;-86
2023/02/02 14:59:53;;;;;;;3.30;3.00;;;;;;;;;;5036614;28;20211;-86
2023/02/02 15:02:24;;;;;;;7.50;3.40;;;;;;;;;;5051211;28;20234;-85
2023/02/02 15:04:50;;;;;;;3.00;1.90;;;;;;;;;;5051038;28;20225;-86
2023/02/02 15:07:52;;;;;;;1.30;1.20;;;;;;;;;;5059361;28;20710;-86
2023/02/02 15:10:58;;;;;;;1.37;1.27;;;;;;;;;;5069447;28;20315;-86
2023/02/02 15:13:28;;;;;;;3.17;1.60;;;;;;;;;;5063889;28;20210;-86
2023/02/02 15:16:06;;;;;;;0.90;0.90;;;;;;;;;;5050461;28;20213;-85
2023/02/02 15:18:41;;;;;;;1.80;1.70;;;;;;;;;;5042381;28;20244;-85
2023/02/02 15:21:08;;;;;;;1.40;1.30;;;;;;;;;;5067168;28;20205;-85
2023/02/02 15:23:39;;;;;;;1.30;1.30;;;;;;;;;;5053960;28;20217;-85
2023/02/02 15:26:12;;;;;;;2.20;2.00;;;;;;;;;;5057653;28;20208;-85